createdAt,value
2023-05-01T00:00:35.934Z,100.00
2023-05-01T00:03:04.646Z,100.00
2023-05-01T00:05:33.115Z,100.00
2023-05-01T00:08:01.697Z,100.00
2023-05-01T00:10:30.408Z,100.00
2023-05-01T00:12:58.930Z,100.00
2023-05-01T00:15:27.478Z,100.00
2023-05-01T00:17:57.447Z,100.00
2023-05-01T00:20:28.588Z,100.00
2023-05-01T00:22:57.968Z,100.00
2023-05-01T00:25:26.619Z,100.00
2023-05-01T00:27:55.164Z,100.00
2023-05-01T00:30:23.717Z,100.00
2023-05-01T00:32:52.160Z,100.00
2023-05-01T00:35:22.172Z,100.00
2023-05-01T00:37:50.905Z,100.00
2023-05-01T00:40:19.443Z,100.00
2023-05-01T00:42:47.931Z,100.00
2023-05-01T00:45:16.392Z,100.00
2023-05-01T00:47:44.939Z,100.00
2023-05-01T00:50:14.013Z,100.00
2023-05-01T00:52:44.182Z,100.00
2023-05-01T00:55:12.983Z,100.00
2023-05-01T00:57:41.679Z,100.00
2023-05-01T01:00:12.613Z,100.00
2023-05-01T01:02:41.385Z,100.00
2023-05-01T01:05:10.077Z,100.00
2023-05-01T01:07:47.957Z,100.00
2023-05-01T01:10:24.940Z,100.00
2023-05-01T01:13:00.135Z,100.00
2023-05-01T01:15:35.442Z,100.00
2023-05-01T01:18:11.594Z,100.00
2023-05-01T01:20:46.745Z,100.00
2023-05-01T01:23:54.728Z,100.00
2023-05-01T01:26:40.650Z,100.00
2023-05-01T01:29:45.363Z,100.00
2023-05-01T01:32:39.424Z,100.00
2023-05-01T01:35:14.579Z,100.00
2023-05-01T01:37:49.861Z,100.00
2023-05-01T01:40:21.768Z,100.00
2023-05-01T01:42:56.809Z,100.00
2023-05-01T01:45:31.496Z,100.00
2023-05-01T01:48:01.393Z,100.00
2023-05-01T01:50:33.576Z,100.00
2023-05-01T01:53:03.720Z,100.00
2023-05-01T01:55:35.210Z,100.00
2023-05-01T01:58:05.350Z,100.00
2023-05-01T02:00:35.964Z,100.00
2023-05-01T02:03:06.116Z,100.00
2023-05-01T02:05:37.634Z,100.00
2023-05-01T02:08:07.668Z,100.00
2023-05-01T02:10:37.798Z,100.00
2023-05-01T02:13:07.524Z,100.00
2023-05-01T02:15:36.483Z,100.00
2023-05-01T02:18:06.711Z,100.00
2023-05-01T02:20:39.061Z,100.00
2023-05-01T02:23:09.258Z,100.00
2023-05-01T02:25:41.326Z,100.00
2023-05-01T02:28:14.190Z,100.00
2023-05-01T02:30:42.829Z,100.00
2023-05-01T02:33:11.375Z,100.00
2023-05-01T02:35:43.086Z,100.00
2023-05-01T02:38:13.081Z,100.00
2023-05-01T02:40:44.042Z,100.00
2023-05-01T02:43:15.408Z,100.00
2023-05-01T02:45:46.318Z,100.00
2023-05-01T02:48:17.679Z,100.00
2023-05-01T02:50:48.950Z,100.00
2023-05-01T02:53:18.849Z,100.00
2023-05-01T02:56:04.841Z,100.00
2023-05-01T02:58:34.030Z,100.00
2023-05-01T03:01:02.806Z,100.00
2023-05-01T03:03:31.809Z,100.00
2023-05-01T03:06:03.394Z,100.00
2023-05-01T03:08:32.208Z,100.00
2023-05-01T03:11:00.689Z,100.00
2023-05-01T03:13:29.366Z,100.00
2023-05-01T03:15:58.546Z,100.00
2023-05-01T03:18:27.206Z,100.00
2023-05-01T03:20:57.175Z,100.00
2023-05-01T03:23:29.065Z,100.00
2023-05-01T03:25:57.778Z,100.00
2023-05-01T03:28:26.934Z,100.00
2023-05-01T03:30:55.775Z,100.00
2023-05-01T03:33:24.553Z,100.00
2023-05-01T03:36:02.326Z,100.00
2023-05-01T03:38:32.923Z,100.00
2023-05-01T03:41:13.460Z,100.00
2023-05-01T03:44:00.937Z,100.00
2023-05-01T03:46:36.767Z,100.00
2023-05-01T03:49:07.729Z,100.00
2023-05-01T03:51:43.430Z,100.00
2023-05-01T03:54:13.631Z,100.00
2023-05-01T03:57:14.952Z,100.00
2023-05-01T03:59:44.821Z,100.00
2023-05-01T04:02:14.250Z,100.00
2023-05-01T04:04:43.625Z,100.00
2023-05-01T04:07:12.447Z,100.00
2023-05-01T04:09:42.619Z,100.00
2023-05-01T04:12:11.417Z,100.00
2023-05-01T04:14:39.899Z,100.00
2023-05-01T04:17:08.565Z,100.00
2023-05-01T04:19:38.894Z,100.00
2023-05-01T04:22:07.870Z,100.00
2023-05-01T04:24:39.757Z,100.00
2023-05-01T04:27:10.021Z,100.00
2023-05-01T04:29:38.692Z,100.00
2023-05-01T04:32:07.573Z,100.00
2023-05-01T04:34:37.072Z,100.00
2023-05-01T04:37:08.000Z,100.00
2023-05-01T04:39:37.057Z,100.00
2023-05-01T04:42:06.353Z,100.00
2023-05-01T04:44:37.471Z,100.00
2023-05-01T04:47:07.279Z,100.00
2023-05-01T04:49:37.390Z,100.00
2023-05-01T04:52:06.270Z,100.00
2023-05-01T04:54:49.032Z,100.00
2023-05-01T04:57:17.831Z,100.00
2023-05-01T04:59:48.580Z,100.00
2023-05-01T05:02:17.255Z,100.00
2023-05-01T05:04:45.773Z,100.00
2023-05-01T05:07:14.617Z,100.00
2023-05-01T05:10:03.385Z,100.00
2023-05-01T05:12:38.956Z,100.00
2023-05-01T05:15:10.598Z,100.00
2023-05-01T05:17:39.199Z,100.00
2023-05-01T05:20:09.513Z,100.00
2023-05-01T05:22:38.879Z,100.00
2023-05-01T05:25:23.934Z,100.00
2023-05-01T05:27:52.766Z,100.00
2023-05-01T05:30:22.696Z,100.00
2023-05-01T05:32:51.562Z,100.00
2023-05-01T05:35:22.242Z,100.00
2023-05-01T05:37:51.809Z,100.00
2023-05-01T05:40:20.814Z,100.00
2023-05-01T05:42:58.473Z,100.00
2023-05-01T05:45:31.518Z,100.00
2023-05-01T05:48:00.297Z,100.00
2023-05-01T05:50:30.727Z,100.00
2023-05-01T05:53:00.301Z,100.00
2023-05-01T05:55:29.437Z,100.00
2023-05-01T05:58:03.498Z,100.00
2023-05-01T06:00:34.110Z,100.00
2023-05-01T06:03:07.337Z,100.00
2023-05-01T06:05:37.453Z,100.00
2023-05-01T06:08:06.690Z,100.00
2023-05-01T06:10:35.356Z,100.00
2023-05-01T06:13:03.836Z,100.00
2023-05-01T06:15:38.063Z,100.00
2023-05-01T06:18:07.262Z,100.00
2023-05-01T06:20:36.385Z,100.00
2023-05-01T06:23:08.679Z,100.00
2023-05-01T06:25:50.349Z,100.00
2023-05-01T06:28:18.921Z,100.00
2023-05-01T06:30:49.698Z,100.00
2023-05-01T06:33:20.480Z,100.00
2023-05-01T06:36:00.100Z,100.00
2023-05-01T06:38:28.955Z,100.00
2023-05-01T06:40:58.049Z,100.00
2023-05-01T06:43:30.668Z,100.00
2023-05-01T06:46:00.829Z,100.00
2023-05-01T06:48:29.408Z,100.00
2023-05-01T06:50:58.109Z,100.00
2023-05-01T06:53:26.502Z,100.00
2023-05-01T06:55:55.166Z,100.00
2023-05-01T06:58:24.562Z,100.00
2023-05-01T07:00:55.158Z,100.00
2023-05-01T07:03:27.872Z,100.00
2023-05-01T07:05:56.905Z,100.00
2023-05-01T07:08:25.708Z,100.00
2023-05-01T07:10:54.366Z,100.00
2023-05-01T07:13:23.059Z,100.00
2023-05-01T07:15:53.792Z,100.00
2023-05-01T07:18:24.663Z,100.00
2023-05-01T07:20:53.124Z,100.00
2023-05-01T07:23:23.765Z,100.00
2023-05-01T07:25:52.433Z,100.00
2023-05-01T07:28:22.067Z,100.00
2023-05-01T07:30:50.902Z,100.00
2023-05-01T07:33:19.502Z,100.00
2023-05-01T07:35:49.789Z,100.00
2023-05-01T07:38:18.660Z,100.00
2023-05-01T07:40:47.399Z,100.00
2023-05-01T07:43:16.122Z,100.00
2023-05-01T07:45:56.850Z,100.00
2023-05-01T07:48:25.689Z,100.00
2023-05-01T07:50:56.821Z,100.00
2023-05-01T07:53:25.684Z,100.00
2023-05-01T07:55:54.194Z,100.00
2023-05-01T07:58:22.724Z,100.00
2023-05-01T08:00:51.285Z,100.00
2023-05-01T08:03:20.066Z,100.00
2023-05-01T08:05:48.763Z,100.00
2023-05-01T08:08:21.541Z,100.00
2023-05-01T08:10:50.297Z,100.00
2023-05-01T08:13:18.778Z,100.00
2023-05-01T08:15:48.188Z,100.00
2023-05-01T08:18:21.252Z,98.87
2023-05-01T08:20:50.701Z,100.00
2023-05-01T08:23:20.873Z,100.00
2023-05-01T08:25:51.797Z,98.52
2023-05-01T08:28:21.614Z,93.08
2023-05-01T08:30:50.717Z,95.06
2023-05-01T08:33:19.706Z,90.77
2023-05-01T08:35:48.726Z,87.89
2023-05-01T08:38:17.482Z,83.19
2023-05-01T08:40:53.829Z,84.46
2023-05-01T08:43:22.940Z,78.85
2023-05-01T08:45:52.669Z,71.59
2023-05-01T08:48:22.446Z,73.71
2023-05-01T08:50:52.381Z,69.69
2023-05-01T08:53:23.574Z,77.78
2023-05-01T08:55:53.574Z,80.25
2023-05-01T08:58:23.379Z,69.32
2023-05-01T09:00:52.445Z,83.66
2023-05-01T09:03:22.917Z,85.51
2023-05-01T09:05:52.589Z,73.49
2023-05-01T09:08:21.420Z,69.20
2023-05-01T09:10:50.858Z,75.24
2023-05-01T09:13:21.177Z,72.59
2023-05-01T09:15:50.076Z,67.91
2023-05-01T09:18:18.758Z,68.10
2023-05-01T09:20:47.465Z,75.99
2023-05-01T09:23:16.246Z,66.99
2023-05-01T09:25:45.389Z,68.61
2023-05-01T09:28:13.989Z,69.70
2023-05-01T09:30:44.266Z,65.21
2023-05-01T09:33:14.332Z,64.71
2023-05-01T09:35:57.276Z,66.37
2023-05-01T09:38:27.239Z,63.74
2023-05-01T09:40:58.526Z,65.60
2023-05-01T09:43:28.586Z,62.64
2023-05-01T09:46:07.026Z,62.61
2023-05-01T09:48:36.318Z,63.93
2023-05-01T09:51:23.152Z,60.51
2023-05-01T09:53:52.606Z,63.77
2023-05-01T09:56:22.096Z,61.25
2023-05-01T09:58:52.575Z,66.52
2023-05-01T10:01:40.012Z,64.39
2023-05-01T10:04:10.280Z,63.89
2023-05-01T10:06:39.663Z,61.19
2023-05-01T10:09:16.942Z,65.40
2023-05-01T10:11:52.750Z,65.84
2023-05-01T10:14:24.214Z,66.77
2023-05-01T10:16:54.966Z,57.91
2023-05-01T10:19:23.763Z,65.77
2023-05-01T10:21:52.920Z,61.47
2023-05-01T10:24:21.473Z,56.45
2023-05-01T10:26:50.420Z,61.78
2023-05-01T10:29:23.538Z,56.50
2023-05-01T10:31:53.636Z,63.08
2023-05-01T10:34:26.396Z,59.46
2023-05-01T10:37:00.262Z,56.06
2023-05-01T10:39:32.847Z,58.42
2023-05-01T10:42:11.533Z,50.92
2023-05-01T10:44:40.519Z,56.51
2023-05-01T10:47:47.935Z,54.10
2023-05-01T10:50:16.857Z,56.45
2023-05-01T10:53:17.709Z,55.72
2023-05-01T10:55:47.376Z,55.28
2023-05-01T10:58:52.042Z,54.13
2023-05-01T11:01:34.688Z,57.60
2023-05-01T11:04:08.453Z,53.25
2023-05-01T11:06:38.602Z,52.07
2023-05-01T11:09:38.316Z,52.09
2023-05-01T11:12:07.683Z,55.02
2023-05-01T11:15:08.481Z,55.01
2023-05-01T11:17:51.219Z,54.20
2023-05-01T11:20:50.231Z,56.75
2023-05-01T11:23:20.069Z,51.14
2023-05-01T11:25:51.088Z,54.95
2023-05-01T11:28:24.572Z,54.52
2023-05-01T11:30:53.298Z,55.12
2023-05-01T11:33:29.228Z,57.28
2023-05-01T11:36:05.384Z,51.35
2023-05-01T11:38:34.025Z,56.83
2023-05-01T11:41:04.550Z,55.72
2023-05-01T11:43:33.600Z,56.00
2023-05-01T11:46:05.143Z,58.37
2023-05-01T11:48:34.330Z,56.45
2023-05-01T11:51:13.196Z,57.82
2023-05-01T11:53:41.825Z,59.33
2023-05-01T11:56:26.443Z,53.72
2023-05-01T11:58:55.764Z,52.90
2023-05-01T12:01:34.886Z,56.00
2023-05-01T12:04:03.807Z,52.61
2023-05-01T12:06:44.112Z,58.48
2023-05-01T12:09:17.111Z,55.78
2023-05-01T12:11:46.645Z,54.55
2023-05-01T12:14:16.664Z,53.80
2023-05-01T12:16:45.874Z,52.75
2023-05-01T12:19:15.750Z,56.59
2023-05-01T12:21:45.950Z,49.19
2023-05-01T12:24:16.329Z,52.62
2023-05-01T12:26:45.683Z,56.79
2023-05-01T12:29:14.393Z,49.42
2023-05-01T12:31:48.713Z,54.05
2023-05-01T12:34:17.387Z,51.53
2023-05-01T12:36:55.195Z,50.89
2023-05-01T12:39:24.742Z,54.32
2023-05-01T12:41:54.792Z,53.99
2023-05-01T12:44:25.007Z,49.86
2023-05-01T12:47:00.759Z,50.01
2023-05-01T12:49:31.343Z,50.95
2023-05-01T12:52:03.767Z,53.93
2023-05-01T12:54:34.535Z,54.66
2023-05-01T12:57:10.907Z,53.13
2023-05-01T12:59:41.186Z,52.94
2023-05-01T13:02:12.725Z,55.51
2023-05-01T13:04:41.945Z,54.52
2023-05-01T13:07:16.249Z,53.78
2023-05-01T13:09:53.883Z,52.57
2023-05-01T13:12:23.103Z,52.01
2023-05-01T13:14:52.109Z,51.51
2023-05-01T13:17:25.819Z,52.92
2023-05-01T13:19:56.143Z,52.29
2023-05-01T13:22:36.129Z,56.26
2023-05-01T13:25:06.567Z,54.48
2023-05-01T13:27:35.159Z,54.21
2023-05-01T13:30:04.019Z,55.24
2023-05-01T13:32:33.509Z,59.53
2023-05-01T13:35:03.368Z,51.76
2023-05-01T13:37:32.665Z,58.21
2023-05-01T13:40:03.729Z,58.65
2023-05-01T13:42:33.032Z,55.93
2023-05-01T13:45:05.888Z,55.00
2023-05-01T13:47:34.687Z,64.57
2023-05-01T13:50:03.388Z,60.24
2023-05-01T13:52:32.537Z,62.63
2023-05-01T13:55:04.949Z,63.74
2023-05-01T13:57:34.403Z,64.54
2023-05-01T14:00:02.961Z,67.70
2023-05-01T14:02:45.559Z,68.94
2023-05-01T14:05:14.542Z,67.96
2023-05-01T14:07:48.801Z,67.36
2023-05-01T14:10:19.225Z,69.82
2023-05-01T14:12:47.696Z,72.90
2023-05-01T14:15:17.184Z,69.84
2023-05-01T14:17:46.817Z,73.86
2023-05-01T14:20:17.278Z,73.65
2023-05-01T14:22:47.153Z,67.26
2023-05-01T14:25:25.299Z,67.51
2023-05-01T14:27:55.207Z,71.84
2023-05-01T14:30:29.131Z,73.42
2023-05-01T14:32:58.238Z,77.95
2023-05-01T14:35:26.758Z,76.62
2023-05-01T14:37:55.280Z,80.29
2023-05-01T14:40:27.823Z,88.81
2023-05-01T14:42:56.503Z,83.86
2023-05-01T14:45:25.043Z,78.27
2023-05-01T14:47:53.762Z,82.64
2023-05-01T14:50:24.776Z,77.75
2023-05-01T14:52:56.609Z,86.64
2023-05-01T14:55:28.439Z,86.92
2023-05-01T14:57:58.007Z,97.38
2023-05-01T15:00:26.931Z,92.10
2023-05-01T15:02:56.203Z,98.31
2023-05-01T15:05:26.283Z,99.87
2023-05-01T15:07:56.519Z,99.61
2023-05-01T15:10:26.874Z,100.00
2023-05-01T15:12:55.486Z,100.00
2023-05-01T15:15:24.010Z,100.00
2023-05-01T15:17:54.325Z,100.00
2023-05-01T15:20:22.898Z,100.00
2023-05-01T15:22:51.530Z,100.00
2023-05-01T15:25:20.293Z,100.00
2023-05-01T15:27:51.627Z,100.00
2023-05-01T15:30:20.463Z,100.00
2023-05-01T15:32:49.810Z,100.00
2023-05-01T15:35:19.082Z,100.00
2023-05-01T15:37:47.805Z,100.00
2023-05-01T15:40:16.522Z,100.00
2023-05-01T15:42:45.694Z,100.00
2023-05-01T15:45:16.063Z,100.00
2023-05-01T15:47:45.086Z,100.00
2023-05-01T15:50:13.865Z,100.00
2023-05-01T15:52:42.666Z,100.00
2023-05-01T15:55:11.384Z,100.00
2023-05-01T15:57:39.993Z,100.00
2023-05-01T16:00:10.747Z,100.00
2023-05-01T16:02:41.078Z,100.00
2023-05-01T16:05:10.349Z,100.00
2023-05-01T16:07:40.525Z,100.00
2023-05-01T16:10:10.730Z,100.00
2023-05-01T16:12:39.393Z,100.00
2023-05-01T16:15:08.923Z,100.00
2023-05-01T16:17:45.459Z,100.00
2023-05-01T16:20:17.296Z,100.00
2023-05-01T16:22:45.822Z,100.00
2023-05-01T16:25:15.295Z,100.00
2023-05-01T16:27:46.363Z,100.00
2023-05-01T16:30:15.697Z,100.00
2023-05-01T16:32:46.367Z,100.00
2023-05-01T16:35:18.742Z,100.00
2023-05-01T16:37:47.380Z,100.00
2023-05-01T16:40:18.363Z,100.00
2023-05-01T16:42:51.039Z,100.00
2023-05-01T16:45:19.880Z,100.00
2023-05-01T16:47:50.009Z,100.00
2023-05-01T16:50:19.025Z,100.00
2023-05-01T16:52:47.489Z,100.00
2023-05-01T16:55:16.308Z,100.00
2023-05-01T16:57:45.167Z,100.00
2023-05-01T17:00:15.346Z,100.00
2023-05-01T17:02:45.062Z,100.00
2023-05-01T17:05:15.172Z,100.00
2023-05-01T17:07:43.814Z,100.00
2023-05-01T17:10:12.791Z,100.00
2023-05-01T17:12:41.524Z,100.00
2023-05-01T17:15:11.078Z,100.00
2023-05-01T17:17:39.642Z,100.00
2023-05-01T17:20:09.557Z,100.00
2023-05-01T17:22:39.526Z,100.00
2023-05-01T17:25:09.576Z,100.00
2023-05-01T17:27:39.059Z,100.00
2023-05-01T17:30:08.995Z,100.00
2023-05-01T17:32:37.941Z,100.00
2023-05-01T17:35:07.559Z,100.00
2023-05-01T17:37:39.971Z,100.00
2023-05-01T17:40:12.472Z,100.00
2023-05-01T17:42:42.050Z,100.00
2023-05-01T17:45:11.470Z,100.00
2023-05-01T17:47:45.278Z,100.00
2023-05-01T17:50:15.141Z,100.00
2023-05-01T17:52:45.484Z,100.00
2023-05-01T17:55:18.021Z,100.00
2023-05-01T17:57:47.791Z,100.00
2023-05-01T18:00:17.154Z,100.00
2023-05-01T18:02:47.768Z,100.00
2023-05-01T18:05:19.615Z,100.00
2023-05-01T18:07:48.432Z,100.00
2023-05-01T18:10:18.369Z,100.00
2023-05-01T18:12:50.112Z,100.00
2023-05-01T18:15:22.919Z,100.00
2023-05-01T18:17:51.682Z,100.00
2023-05-01T18:20:20.379Z,100.00
2023-05-01T18:22:48.877Z,100.00
2023-05-01T18:25:20.248Z,100.00
2023-05-01T18:27:49.373Z,100.00
2023-05-01T18:30:18.277Z,100.00
2023-05-01T18:32:48.688Z,100.00
2023-05-01T18:35:19.146Z,100.00
2023-05-01T18:37:47.974Z,100.00
2023-05-01T18:40:16.644Z,100.00
2023-05-01T18:42:46.705Z,100.00
2023-05-01T18:45:15.248Z,100.00
2023-05-01T18:47:43.867Z,100.00
2023-05-01T18:50:13.339Z,100.00
2023-05-01T18:52:43.160Z,100.00
2023-05-01T18:55:12.484Z,100.00
2023-05-01T18:57:43.989Z,100.00
2023-05-01T19:00:16.852Z,100.00
2023-05-01T19:02:51.835Z,100.00
2023-05-01T19:18:20.289Z,100.00
2023-05-01T19:20:49.007Z,100.00
2023-05-01T19:23:17.608Z,100.00
2023-05-01T19:25:46.170Z,100.00
2023-05-01T19:28:17.430Z,100.00
2023-05-01T19:30:46.100Z,100.00
2023-05-01T19:33:14.666Z,100.00
2023-05-01T19:35:45.035Z,100.00
2023-05-01T19:38:13.686Z,100.00
2023-05-01T19:40:42.586Z,100.00
2023-05-01T19:43:11.246Z,100.00
2023-05-01T19:45:39.796Z,100.00
2023-05-01T19:48:08.697Z,100.00
2023-05-01T19:50:37.362Z,100.00
2023-05-01T19:53:07.550Z,100.00
2023-05-01T19:55:36.015Z,100.00
2023-05-01T19:58:05.752Z,100.00
2023-05-01T20:00:34.343Z,100.00
2023-05-01T20:03:03.089Z,100.00
2023-05-01T20:05:33.294Z,100.00
2023-05-01T20:08:02.258Z,100.00
2023-05-01T20:10:32.494Z,100.00
2023-05-01T20:13:01.950Z,100.00
2023-05-01T20:15:30.520Z,100.00
2023-05-01T20:17:59.080Z,100.00
2023-05-01T20:20:27.741Z,100.00
2023-05-01T20:23:10.753Z,100.00
2023-05-01T20:25:41.121Z,100.00
2023-05-01T20:28:10.566Z,100.00
2023-05-01T20:30:40.502Z,100.00
2023-05-01T20:33:09.471Z,100.00
2023-05-01T20:35:38.820Z,100.00
2023-05-01T20:38:07.674Z,100.00
2023-05-01T20:40:40.350Z,100.00
2023-05-01T20:43:11.502Z,100.00
2023-05-01T20:45:39.911Z,100.00
2023-05-01T20:48:08.730Z,100.00
2023-05-01T20:50:37.462Z,100.00
2023-05-01T20:53:06.132Z,100.00
2023-05-01T20:55:34.809Z,100.00
2023-05-01T20:58:04.937Z,100.00
2023-05-01T21:00:35.195Z,100.00
2023-05-01T21:03:03.969Z,100.00
2023-05-01T21:05:32.684Z,100.00
2023-05-01T21:08:01.342Z,100.00
2023-05-01T21:10:29.785Z,100.00
2023-05-01T21:12:58.780Z,100.00
2023-05-01T21:15:27.748Z,100.00
2023-05-01T21:17:58.004Z,100.00
2023-05-01T21:20:34.649Z,100.00
2023-05-01T21:23:04.705Z,100.00
2023-05-01T21:25:33.361Z,100.00
2023-05-01T21:28:03.771Z,100.00
2023-05-01T21:30:34.439Z,100.00
2023-05-01T21:33:07.178Z,100.00
2023-05-01T21:35:36.065Z,100.00
2023-05-01T21:38:05.654Z,100.00
2023-05-01T21:40:38.444Z,100.00
2023-05-01T21:43:07.878Z,100.00
2023-05-01T21:45:40.646Z,100.00
2023-05-01T21:48:11.501Z,100.00
2023-05-01T21:50:40.220Z,100.00
2023-05-01T21:53:08.951Z,100.00
2023-05-01T21:55:37.859Z,100.00
2023-05-01T21:58:06.501Z,100.00
2023-05-01T22:00:35.346Z,100.00
2023-05-01T22:03:08.545Z,100.00
2023-05-01T22:05:41.191Z,100.00
2023-05-01T22:08:09.777Z,100.00
2023-05-01T22:10:38.382Z,100.00
2023-05-01T22:13:07.155Z,100.00
2023-05-01T22:15:35.820Z,100.00
2023-05-01T22:18:05.141Z,100.00
2023-05-01T22:20:33.676Z,100.00
2023-05-01T22:23:03.785Z,100.00
2023-05-01T22:25:32.319Z,100.00
2023-05-01T22:28:01.510Z,100.00
2023-05-01T22:30:30.294Z,100.00
2023-05-01T22:32:58.933Z,100.00
2023-05-01T22:35:27.440Z,100.00
2023-05-01T22:37:56.034Z,100.00
2023-05-01T22:40:26.473Z,100.00
2023-05-01T22:42:55.014Z,100.00
2023-05-01T22:45:23.487Z,100.00
2023-05-01T22:47:52.059Z,100.00
2023-05-01T22:50:20.550Z,100.00
2023-05-01T22:52:49.135Z,100.00
2023-05-01T22:55:17.894Z,100.00
2023-05-01T22:57:48.019Z,100.00
2023-05-01T23:00:17.068Z,100.00
2023-05-01T23:02:45.654Z,100.00
2023-05-01T23:05:14.254Z,100.00
2023-05-01T23:07:42.903Z,100.00
2023-05-01T23:10:12.536Z,100.00
2023-05-01T23:12:43.635Z,100.00
2023-05-01T23:15:17.274Z,100.00
2023-05-01T23:17:45.913Z,100.00
2023-05-01T23:20:19.421Z,100.00
2023-05-01T23:22:48.826Z,100.00
2023-05-01T23:25:23.068Z,100.00
2023-05-01T23:27:53.320Z,100.00
2023-05-01T23:30:24.347Z,100.00
2023-05-01T23:32:53.181Z,100.00
2023-05-01T23:35:24.516Z,100.00
2023-05-01T23:37:54.094Z,100.00
2023-05-01T23:40:22.706Z,100.00
2023-05-01T23:42:51.473Z,100.00
2023-05-01T23:45:20.221Z,100.00
2023-05-01T23:47:50.244Z,100.00
2023-05-01T23:50:19.050Z,100.00
2023-05-01T23:52:47.792Z,100.00
2023-05-01T23:55:16.241Z,100.00
2023-05-01T23:57:45.115Z,100.00
